sensor_id;sensor_type;location;lat;lon;timestamp;P1;durP1;ratioP1;P2;durP2;ratioP2
4732;SDS011;2380;53.668;10.008;2022-08-25T00:00:24;13.80;;;7.30;;
4732;SDS011;2380;53.668;10.008;2022-08-25T00:02:54;10.47;;;6.73;;
4732;SDS011;2380;53.668;10.008;2022-08-25T00:05:24;10.87;;;7.70;;
4732;SDS011;2380;53.668;10.008;2022-08-25T00:07:58;9.60;;;6.10;;
4732;SDS011;2380;53.668;10.008;2022-08-25T00:10:32;9.57;;;6.33;;
4732;SDS011;2380;53.668;10.008;2022-08-25T00:13:03;11.57;;;6.57;;
4732;SDS011;2380;53.668;10.008;2022-08-25T00:15:33;9.47;;;6.03;;
4732;SDS011;2380;53.668;10.008;2022-08-25T00:18:03;11.20;;;6.30;;
4732;SDS011;2380;53.668;10.008;2022-08-25T00:20:45;12.07;;;8.07;;
4732;SDS011;2380;53.668;10.008;2022-08-25T00:23:14;16.50;;;8.90;;
4732;SDS011;2380;53.668;10.008;2022-08-25T00:25:47;14.07;;;8.47;;
4732;SDS011;2380;53.668;10.008;2022-08-25T00:28:16;14.13;;;8.30;;
4732;SDS011;2380;53.668;10.008;2022-08-25T00:30:46;7.37;;;5.40;;
4732;SDS011;2380;53.668;10.008;2022-08-25T00:33:16;15.80;;;8.00;;
4732;SDS011;2380;53.668;10.008;2022-08-25T00:35:46;18.17;;;7.97;;
4732;SDS011;2380;53.668;10.008;2022-08-25T00:38:15;19.03;;;9.90;;
4732;SDS011;2380;53.668;10.008;2022-08-25T00:40:48;16.27;;;8.00;;
4732;SDS011;2380;53.668;10.008;2022-08-25T00:43:34;14.53;;;6.60;;
4732;SDS011;2380;53.668;10.008;2022-08-25T00:46:05;17.57;;;8.70;;
4732;SDS011;2380;53.668;10.008;2022-08-25T00:48:35;10.70;;;6.80;;
4732;SDS011;2380;53.668;10.008;2022-08-25T00:51:08;11.37;;;6.27;;
4732;SDS011;2380;53.668;10.008;2022-08-25T00:53:41;8.40;;;6.47;;
4732;SDS011;2380;53.668;10.008;2022-08-25T00:56:14;9.33;;;5.90;;
4732;SDS011;2380;53.668;10.008;2022-08-25T00:58:46;15.83;;;6.40;;
4732;SDS011;2380;53.668;10.008;2022-08-25T01:01:16;9.67;;;6.17;;
4732;SDS011;2380;53.668;10.008;2022-08-25T01:03:46;9.80;;;5.80;;
4732;SDS011;2380;53.668;10.008;2022-08-25T01:06:16;7.20;;;5.50;;
4732;SDS011;2380;53.668;10.008;2022-08-25T01:08:45;9.50;;;5.93;;
4732;SDS011;2380;53.668;10.008;2022-08-25T01:11:18;8.33;;;6.10;;
4732;SDS011;2380;53.668;10.008;2022-08-25T01:13:48;7.47;;;5.80;;
4732;SDS011;2380;53.668;10.008;2022-08-25T01:16:20;11.40;;;6.00;;
4732;SDS011;2380;53.668;10.008;2022-08-25T01:18:51;8.77;;;6.10;;
4732;SDS011;2380;53.668;10.008;2022-08-25T01:21:25;14.37;;;6.70;;
4732;SDS011;2380;53.668;10.008;2022-08-25T01:23:57;6.70;;;5.47;;
4732;SDS011;2380;53.668;10.008;2022-08-25T01:26:28;8.20;;;5.43;;
4732;SDS011;2380;53.668;10.008;2022-08-25T01:29:00;7.27;;;5.53;;
4732;SDS011;2380;53.668;10.008;2022-08-25T01:31:44;9.47;;;6.50;;
4732;SDS011;2380;53.668;10.008;2022-08-25T01:34:16;11.30;;;6.40;;
4732;SDS011;2380;53.668;10.008;2022-08-25T01:36:49;10.20;;;6.60;;
4732;SDS011;2380;53.668;10.008;2022-08-25T01:39:19;12.90;;;7.00;;
4732;SDS011;2380;53.668;10.008;2022-08-25T01:41:53;10.90;;;6.07;;
4732;SDS011;2380;53.668;10.008;2022-08-25T01:44:28;7.30;;;5.83;;
4732;SDS011;2380;53.668;10.008;2022-08-25T01:46:57;8.90;;;6.00;;
4732;SDS011;2380;53.668;10.008;2022-08-25T01:49:27;9.27;;;6.43;;
4732;SDS011;2380;53.668;10.008;2022-08-25T01:52:00;10.57;;;7.13;;
4732;SDS011;2380;53.668;10.008;2022-08-25T01:54:30;9.53;;;6.53;;
4732;SDS011;2380;53.668;10.008;2022-08-25T01:57:00;10.80;;;7.17;;
4732;SDS011;2380;53.668;10.008;2022-08-25T01:59:29;9.10;;;6.30;;
4732;SDS011;2380;53.668;10.008;2022-08-25T02:01:59;8.50;;;6.20;;
4732;SDS011;2380;53.668;10.008;2022-08-25T02:04:30;9.20;;;6.27;;
4732;SDS011;2380;53.668;10.008;2022-08-25T02:07:03;14.50;;;7.37;;
4732;SDS011;2380;53.668;10.008;2022-08-25T02:09:36;10.37;;;6.10;;
4732;SDS011;2380;53.668;10.008;2022-08-25T02:12:06;13.03;;;7.27;;
4732;SDS011;2380;53.668;10.008;2022-08-25T02:14:37;8.30;;;6.00;;
4732;SDS011;2380;53.668;10.008;2022-08-25T02:17:07;8.77;;;6.73;;
4732;SDS011;2380;53.668;10.008;2022-08-25T02:19:36;9.77;;;6.63;;
4732;SDS011;2380;53.668;10.008;2022-08-25T02:22:08;10.50;;;6.90;;
4732;SDS011;2380;53.668;10.008;2022-08-25T02:24:38;12.87;;;6.30;;
4732;SDS011;2380;53.668;10.008;2022-08-25T02:27:08;13.37;;;6.13;;
4732;SDS011;2380;53.668;10.008;2022-08-25T02:29:37;15.17;;;7.27;;
4732;SDS011;2380;53.668;10.008;2022-08-25T02:32:08;10.30;;;7.30;;
4732;SDS011;2380;53.668;10.008;2022-08-25T02:34:38;12.03;;;6.70;;
4732;SDS011;2380;53.668;10.008;2022-08-25T02:37:10;11.00;;;6.93;;
4732;SDS011;2380;53.668;10.008;2022-08-25T02:39:40;11.80;;;6.23;;
4732;SDS011;2380;53.668;10.008;2022-08-25T02:42:09;9.80;;;6.27;;
4732;SDS011;2380;53.668;10.008;2022-08-25T02:44:39;8.93;;;6.70;;
4732;SDS011;2380;53.668;10.008;2022-08-25T02:47:09;10.73;;;6.67;;
4732;SDS011;2380;53.668;10.008;2022-08-25T02:49:38;9.87;;;6.83;;
4732;SDS011;2380;53.668;10.008;2022-08-25T02:52:10;11.17;;;6.33;;
4732;SDS011;2380;53.668;10.008;2022-08-25T02:54:40;10.90;;;6.90;;
4732;SDS011;2380;53.668;10.008;2022-08-25T02:57:10;10.23;;;6.77;;
4732;SDS011;2380;53.668;10.008;2022-08-25T02:59:41;10.53;;;7.10;;
4732;SDS011;2380;53.668;10.008;2022-08-25T03:02:13;9.17;;;6.57;;
4732;SDS011;2380;53.668;10.008;2022-08-25T03:04:43;10.23;;;7.57;;
4732;SDS011;2380;53.668;10.008;2022-08-25T03:07:15;12.40;;;8.00;;
4732;SDS011;2380;53.668;10.008;2022-08-25T03:09:46;8.87;;;7.37;;
4732;SDS011;2380;53.668;10.008;2022-08-25T03:12:16;12.50;;;7.30;;
4732;SDS011;2380;53.668;10.008;2022-08-25T03:14:45;8.70;;;7.30;;
4732;SDS011;2380;53.668;10.008;2022-08-25T03:17:15;12.23;;;7.50;;
4732;SDS011;2380;53.668;10.008;2022-08-25T03:19:44;9.87;;;7.10;;
4732;SDS011;2380;53.668;10.008;2022-08-25T03:22:17;11.50;;;7.90;;
4732;SDS011;2380;53.668;10.008;2022-08-25T03:24:46;17.87;;;7.30;;
4732;SDS011;2380;53.668;10.008;2022-08-25T03:27:16;10.80;;;7.50;;
4732;SDS011;2380;53.668;10.008;2022-08-25T03:29:43;11.07;;;7.77;;
4732;SDS011;2380;53.668;10.008;2022-08-25T03:32:13;14.50;;;7.47;;
4732;SDS011;2380;53.668;10.008;2022-08-25T03:34:43;12.07;;;7.67;;
4732;SDS011;2380;53.668;10.008;2022-08-25T03:37:12;11.47;;;7.73;;
4732;SDS011;2380;53.668;10.008;2022-08-25T03:39:44;14.23;;;7.40;;
4732;SDS011;2380;53.668;10.008;2022-08-25T03:42:14;15.97;;;8.27;;
4732;SDS011;2380;53.668;10.008;2022-08-25T03:44:44;10.80;;;7.60;;
4732;SDS011;2380;53.668;10.008;2022-08-25T03:47:14;12.90;;;8.43;;
4732;SDS011;2380;53.668;10.008;2022-08-25T03:49:44;12.27;;;8.43;;
4732;SDS011;2380;53.668;10.008;2022-08-25T03:52:13;10.57;;;7.80;;
4732;SDS011;2380;53.668;10.008;2022-08-25T03:54:46;12.10;;;8.10;;
4732;SDS011;2380;53.668;10.008;2022-08-25T03:57:15;11.97;;;7.90;;
4732;SDS011;2380;53.668;10.008;2022-08-25T03:59:46;12.63;;;7.20;;
4732;SDS011;2380;53.668;10.008;2022-08-25T04:02:15;13.67;;;8.03;;
4732;SDS011;2380;53.668;10.008;2022-08-25T04:04:45;14.87;;;8.40;;
4732;SDS011;2380;53.668;10.008;2022-08-25T04:07:16;13.20;;;8.53;;
4732;SDS011;2380;53.668;10.008;2022-08-25T04:09:48;14.97;;;8.33;;
4732;SDS011;2380;53.668;10.008;2022-08-25T04:12:17;11.73;;;7.50;;
4732;SDS011;2380;53.668;10.008;2022-08-25T04:14:48;14.27;;;8.27;;
4732;SDS011;2380;53.668;10.008;2022-08-25T04:17:17;12.53;;;8.43;;
4732;SDS011;2380;53.668;10.008;2022-08-25T04:19:48;14.63;;;8.50;;
4732;SDS011;2380;53.668;10.008;2022-08-25T04:22:18;13.90;;;8.00;;
4732;SDS011;2380;53.668;10.008;2022-08-25T04:24:50;14.30;;;8.70;;
4732;SDS011;2380;53.668;10.008;2022-08-25T04:27:20;13.10;;;7.87;;
4732;SDS011;2380;53.668;10.008;2022-08-25T04:29:50;11.10;;;7.63;;
4732;SDS011;2380;53.668;10.008;2022-08-25T04:32:20;15.03;;;7.93;;
4732;SDS011;2380;53.668;10.008;2022-08-25T04:34:49;13.47;;;8.10;;
4732;SDS011;2380;53.668;10.008;2022-08-25T04:37:19;12.60;;;7.67;;
4732;SDS011;2380;53.668;10.008;2022-08-25T04:39:51;15.40;;;8.40;;
4732;SDS011;2380;53.668;10.008;2022-08-25T04:42:21;11.63;;;7.30;;
4732;SDS011;2380;53.668;10.008;2022-08-25T04:44:52;13.20;;;8.20;;
4732;SDS011;2380;53.668;10.008;2022-08-25T04:47:22;18.03;;;8.57;;
4732;SDS011;2380;53.668;10.008;2022-08-25T04:49:53;13.27;;;8.37;;
4732;SDS011;2380;53.668;10.008;2022-08-25T04:52:22;12.67;;;8.07;;
4732;SDS011;2380;53.668;10.008;2022-08-25T04:54:54;12.63;;;7.87;;
4732;SDS011;2380;53.668;10.008;2022-08-25T04:57:25;10.57;;;8.50;;
4732;SDS011;2380;53.668;10.008;2022-08-25T04:59:54;11.70;;;8.00;;
4732;SDS011;2380;53.668;10.008;2022-08-25T05:02:24;17.43;;;8.13;;
4732;SDS011;2380;53.668;10.008;2022-08-25T05:04:53;16.80;;;8.00;;
4732;SDS011;2380;53.668;10.008;2022-08-25T05:07:23;14.50;;;8.20;;
4732;SDS011;2380;53.668;10.008;2022-08-25T05:09:56;12.20;;;8.53;;
4732;SDS011;2380;53.668;10.008;2022-08-25T05:12:27;17.60;;;10.87;;
4732;SDS011;2380;53.668;10.008;2022-08-25T05:14:58;46.87;;;30.17;;
4732;SDS011;2380;53.668;10.008;2022-08-25T05:17:47;20.60;;;14.17;;
4732;SDS011;2380;53.668;10.008;2022-08-25T05:20:21;28.43;;;17.47;;
4732;SDS011;2380;53.668;10.008;2022-08-25T05:22:51;22.67;;;16.43;;
4732;SDS011;2380;53.668;10.008;2022-08-25T05:25:23;20.93;;;13.33;;
4732;SDS011;2380;53.668;10.008;2022-08-25T05:27:53;22.00;;;13.40;;
4732;SDS011;2380;53.668;10.008;2022-08-25T05:30:22;19.77;;;13.40;;
4732;SDS011;2380;53.668;10.008;2022-08-25T05:32:52;18.93;;;12.53;;
4732;SDS011;2380;53.668;10.008;2022-08-25T05:35:22;17.37;;;11.80;;
4732;SDS011;2380;53.668;10.008;2022-08-25T05:37:52;17.10;;;11.07;;
4732;SDS011;2380;53.668;10.008;2022-08-25T05:40:25;17.70;;;10.90;;
4732;SDS011;2380;53.668;10.008;2022-08-25T05:42:54;19.73;;;11.77;;
4732;SDS011;2380;53.668;10.008;2022-08-25T05:45:24;19.63;;;11.60;;
4732;SDS011;2380;53.668;10.008;2022-08-25T05:47:54;17.70;;;11.47;;
4732;SDS011;2380;53.668;10.008;2022-08-25T05:50:24;20.27;;;11.83;;
4732;SDS011;2380;53.668;10.008;2022-08-25T05:52:53;17.90;;;11.30;;
4732;SDS011;2380;53.668;10.008;2022-08-25T05:55:25;16.23;;;11.43;;
4732;SDS011;2380;53.668;10.008;2022-08-25T05:57:55;23.30;;;13.10;;
4732;SDS011;2380;53.668;10.008;2022-08-25T06:00:24;17.30;;;11.13;;
4732;SDS011;2380;53.668;10.008;2022-08-25T06:02:54;17.77;;;12.03;;
4732;SDS011;2380;53.668;10.008;2022-08-25T06:05:21;16.87;;;12.77;;
4732;SDS011;2380;53.668;10.008;2022-08-25T06:07:54;20.43;;;13.70;;
4732;SDS011;2380;53.668;10.008;2022-08-25T06:10:27;18.00;;;12.93;;
4732;SDS011;2380;53.668;10.008;2022-08-25T06:12:56;17.80;;;12.50;;
4732;SDS011;2380;53.668;10.008;2022-08-25T06:15:26;21.97;;;13.80;;
4732;SDS011;2380;53.668;10.008;2022-08-25T06:17:56;20.00;;;13.10;;
4732;SDS011;2380;53.668;10.008;2022-08-25T06:20:29;25.30;;;15.30;;
4732;SDS011;2380;53.668;10.008;2022-08-25T06:22:59;24.53;;;16.40;;
4732;SDS011;2380;53.668;10.008;2022-08-25T06:25:31;19.80;;;14.00;;
4732;SDS011;2380;53.668;10.008;2022-08-25T06:28:01;23.43;;;14.10;;
4732;SDS011;2380;53.668;10.008;2022-08-25T06:30:31;24.07;;;15.07;;
4732;SDS011;2380;53.668;10.008;2022-08-25T06:33:00;24.20;;;14.37;;
4732;SDS011;2380;53.668;10.008;2022-08-25T06:35:30;25.57;;;17.00;;
4732;SDS011;2380;53.668;10.008;2022-08-25T06:38:00;41.53;;;27.20;;
4732;SDS011;2380;53.668;10.008;2022-08-25T06:40:33;33.47;;;22.13;;
4732;SDS011;2380;53.668;10.008;2022-08-25T06:43:02;57.40;;;34.80;;
4732;SDS011;2380;53.668;10.008;2022-08-25T06:45:34;40.83;;;25.97;;
4732;SDS011;2380;53.668;10.008;2022-08-25T06:48:04;29.70;;;20.13;;
4732;SDS011;2380;53.668;10.008;2022-08-25T06:50:33;33.80;;;21.33;;
4732;SDS011;2380;53.668;10.008;2022-08-25T06:53:03;25.50;;;16.97;;
4732;SDS011;2380;53.668;10.008;2022-08-25T06:55:35;24.23;;;16.33;;
4732;SDS011;2380;53.668;10.008;2022-08-25T06:58:05;23.90;;;17.13;;
4732;SDS011;2380;53.668;10.008;2022-08-25T07:00:36;29.40;;;15.70;;
4732;SDS011;2380;53.668;10.008;2022-08-25T07:03:06;22.37;;;15.80;;
4732;SDS011;2380;53.668;10.008;2022-08-25T07:05:36;28.37;;;16.10;;
4732;SDS011;2380;53.668;10.008;2022-08-25T07:08:09;25.47;;;16.73;;
4732;SDS011;2380;53.668;10.008;2022-08-25T07:10:41;24.03;;;16.87;;
4732;SDS011;2380;53.668;10.008;2022-08-25T07:13:13;24.43;;;17.37;;
4732;SDS011;2380;53.668;10.008;2022-08-25T07:15:43;29.87;;;19.07;;
4732;SDS011;2380;53.668;10.008;2022-08-25T07:18:13;42.50;;;28.50;;
4732;SDS011;2380;53.668;10.008;2022-08-25T07:20:43;34.47;;;22.90;;
4732;SDS011;2380;53.668;10.008;2022-08-25T07:23:12;38.60;;;24.33;;
4732;SDS011;2380;53.668;10.008;2022-08-25T07:25:45;31.43;;;19.70;;
4732;SDS011;2380;53.668;10.008;2022-08-25T07:28:15;36.27;;;20.73;;
4732;SDS011;2380;53.668;10.008;2022-08-25T07:30:45;36.33;;;21.07;;
4732;SDS011;2380;53.668;10.008;2022-08-25T07:33:17;25.97;;;18.20;;
4732;SDS011;2380;53.668;10.008;2022-08-25T07:35:47;27.83;;;17.30;;
4732;SDS011;2380;53.668;10.008;2022-08-25T07:38:15;27.43;;;18.97;;
4732;SDS011;2380;53.668;10.008;2022-08-25T07:40:48;29.00;;;18.60;;
4732;SDS011;2380;53.668;10.008;2022-08-25T07:43:22;26.43;;;18.67;;
4732;SDS011;2380;53.668;10.008;2022-08-25T07:45:51;31.50;;;21.10;;
4732;SDS011;2380;53.668;10.008;2022-08-25T07:48:21;26.13;;;18.23;;
4732;SDS011;2380;53.668;10.008;2022-08-25T07:50:51;28.40;;;18.03;;
4732;SDS011;2380;53.668;10.008;2022-08-25T07:53:20;31.90;;;20.27;;
4732;SDS011;2380;53.668;10.008;2022-08-25T07:55:53;21.70;;;15.30;;
4732;SDS011;2380;53.668;10.008;2022-08-25T07:58:22;23.67;;;16.80;;
4732;SDS011;2380;53.668;10.008;2022-08-25T08:00:52;29.50;;;18.67;;
4732;SDS011;2380;53.668;10.008;2022-08-25T08:03:22;26.30;;;16.83;;
4732;SDS011;2380;53.668;10.008;2022-08-25T08:06:11;25.07;;;16.30;;
4732;SDS011;2380;53.668;10.008;2022-08-25T08:08:44;22.47;;;16.10;;
4732;SDS011;2380;53.668;10.008;2022-08-25T08:11:18;18.30;;;13.67;;
4732;SDS011;2380;53.668;10.008;2022-08-25T08:13:49;20.77;;;13.67;;
4732;SDS011;2380;53.668;10.008;2022-08-25T08:16:20;19.90;;;14.23;;
4732;SDS011;2380;53.668;10.008;2022-08-25T08:18:51;17.80;;;13.37;;
4732;SDS011;2380;53.668;10.008;2022-08-25T08:21:21;21.80;;;13.40;;
4732;SDS011;2380;53.668;10.008;2022-08-25T08:23:53;18.63;;;13.23;;
4732;SDS011;2380;53.668;10.008;2022-08-25T08:26:27;21.17;;;14.93;;
4732;SDS011;2380;53.668;10.008;2022-08-25T08:29:16;19.10;;;12.90;;
4732;SDS011;2380;53.668;10.008;2022-08-25T08:31:48;25.70;;;16.90;;
4732;SDS011;2380;53.668;10.008;2022-08-25T08:34:17;17.87;;;13.50;;
4732;SDS011;2380;53.668;10.008;2022-08-25T08:36:50;23.50;;;15.47;;
4732;SDS011;2380;53.668;10.008;2022-08-25T08:39:19;20.13;;;14.53;;
4732;SDS011;2380;53.668;10.008;2022-08-25T08:41:58;18.67;;;13.57;;
4732;SDS011;2380;53.668;10.008;2022-08-25T08:44:52;30.53;;;14.40;;
4732;SDS011;2380;53.668;10.008;2022-08-25T08:47:31;21.90;;;13.90;;
4732;SDS011;2380;53.668;10.008;2022-08-25T08:50:10;18.80;;;13.67;;
4732;SDS011;2380;53.668;10.008;2022-08-25T08:52:54;18.67;;;13.80;;
4732;SDS011;2380;53.668;10.008;2022-08-25T08:55:27;21.97;;;14.40;;
4732;SDS011;2380;53.668;10.008;2022-08-25T08:58:02;24.00;;;17.87;;
4732;SDS011;2380;53.668;10.008;2022-08-25T09:00:38;27.97;;;20.17;;
4732;SDS011;2380;53.668;10.008;2022-08-25T09:03:21;30.27;;;21.57;;
4732;SDS011;2380;53.668;10.008;2022-08-25T09:05:56;21.30;;;13.50;;
4732;SDS011;2380;53.668;10.008;2022-08-25T09:08:32;26.10;;;16.20;;
4732;SDS011;2380;53.668;10.008;2022-08-25T09:11:12;19.70;;;14.40;;
4732;SDS011;2380;53.668;10.008;2022-08-25T09:14:01;22.47;;;16.63;;
4732;SDS011;2380;53.668;10.008;2022-08-25T09:16:38;27.90;;;18.60;;
4732;SDS011;2380;53.668;10.008;2022-08-25T09:19:32;23.20;;;19.50;;
4732;SDS011;2380;53.668;10.008;2022-08-25T09:22:26;26.33;;;20.40;;
4732;SDS011;2380;53.668;10.008;2022-08-25T09:25:06;25.67;;;19.97;;
4732;SDS011;2380;53.668;10.008;2022-08-25T09:27:50;25.77;;;19.20;;
4732;SDS011;2380;53.668;10.008;2022-08-25T09:30:30;27.83;;;18.97;;
4732;SDS011;2380;53.668;10.008;2022-08-25T09:33:04;32.43;;;23.63;;
4732;SDS011;2380;53.668;10.008;2022-08-25T09:35:35;21.53;;;17.07;;
4732;SDS011;2380;53.668;10.008;2022-08-25T09:38:08;32.80;;;22.10;;
4732;SDS011;2380;53.668;10.008;2022-08-25T09:40:40;27.20;;;20.03;;
4732;SDS011;2380;53.668;10.008;2022-08-25T09:43:17;19.37;;;14.77;;
4732;SDS011;2380;53.668;10.008;2022-08-25T09:45:56;20.30;;;14.50;;
4732;SDS011;2380;53.668;10.008;2022-08-25T09:48:29;22.83;;;14.30;;
4732;SDS011;2380;53.668;10.008;2022-08-25T09:51:11;39.67;;;31.80;;
4732;SDS011;2380;53.668;10.008;2022-08-25T09:53:50;28.30;;;18.93;;
4732;SDS011;2380;53.668;10.008;2022-08-25T09:56:22;20.73;;;14.03;;
4732;SDS011;2380;53.668;10.008;2022-08-25T09:58:53;15.17;;;9.27;;
4732;SDS011;2380;53.668;10.008;2022-08-25T10:01:31;17.50;;;10.90;;
4732;SDS011;2380;53.668;10.008;2022-08-25T10:04:02;15.23;;;10.37;;
4732;SDS011;2380;53.668;10.008;2022-08-25T10:06:46;14.07;;;9.10;;
4732;SDS011;2380;53.668;10.008;2022-08-25T10:09:22;20.20;;;9.97;;
4732;SDS011;2380;53.668;10.008;2022-08-25T10:11:55;17.80;;;10.53;;
4732;SDS011;2380;53.668;10.008;2022-08-25T10:14:28;20.97;;;10.33;;
4732;SDS011;2380;53.668;10.008;2022-08-25T10:17:16;39.03;;;15.60;;
4732;SDS011;2380;53.668;10.008;2022-08-25T10:20:11;11.73;;;6.30;;
4732;SDS011;2380;53.668;10.008;2022-08-25T10:22:43;10.00;;;6.07;;
4732;SDS011;2380;53.668;10.008;2022-08-25T10:25:23;10.77;;;6.83;;
4732;SDS011;2380;53.668;10.008;2022-08-25T10:27:58;12.40;;;5.40;;
4732;SDS011;2380;53.668;10.008;2022-08-25T10:30:40;23.63;;;8.77;;
4732;SDS011;2380;53.668;10.008;2022-08-25T10:33:24;10.53;;;5.40;;
4732;SDS011;2380;53.668;10.008;2022-08-25T10:36:00;8.20;;;5.37;;
4732;SDS011;2380;53.668;10.008;2022-08-25T10:38:37;10.20;;;5.50;;
4732;SDS011;2380;53.668;10.008;2022-08-25T10:41:19;19.90;;;6.07;;
4732;SDS011;2380;53.668;10.008;2022-08-25T10:43:58;10.27;;;4.60;;
4732;SDS011;2380;53.668;10.008;2022-08-25T10:46:56;13.43;;;6.50;;
4732;SDS011;2380;53.668;10.008;2022-08-25T10:49:35;12.47;;;6.10;;
4732;SDS011;2380;53.668;10.008;2022-08-25T10:52:09;10.63;;;6.40;;
4732;SDS011;2380;53.668;10.008;2022-08-25T10:54:44;42.03;;;19.43;;
4732;SDS011;2380;53.668;10.008;2022-08-25T10:57:21;13.97;;;7.30;;
4732;SDS011;2380;53.668;10.008;2022-08-25T10:59:56;11.23;;;5.93;;
4732;SDS011;2380;53.668;10.008;2022-08-25T11:05:36;10.50;;;5.67;;
4732;SDS011;2380;53.668;10.008;2022-08-25T11:08:09;12.63;;;7.20;;
4732;SDS011;2380;53.668;10.008;2022-08-25T11:10:43;7.93;;;5.20;;
4732;SDS011;2380;53.668;10.008;2022-08-25T11:13:19;10.43;;;5.77;;
4732;SDS011;2380;53.668;10.008;2022-08-25T11:15:53;11.90;;;6.97;;
4732;SDS011;2380;53.668;10.008;2022-08-25T11:18:45;13.53;;;4.50;;
4732;SDS011;2380;53.668;10.008;2022-08-25T11:21:22;9.30;;;5.80;;
4732;SDS011;2380;53.668;10.008;2022-08-25T11:24:00;43.33;;;17.00;;
4732;SDS011;2380;53.668;10.008;2022-08-25T11:26:44;8.67;;;5.07;;
4732;SDS011;2380;53.668;10.008;2022-08-25T11:29:17;16.27;;;10.13;;
4732;SDS011;2380;53.668;10.008;2022-08-25T11:31:47;22.63;;;8.50;;
4732;SDS011;2380;53.668;10.008;2022-08-25T11:34:19;13.43;;;6.10;;
4732;SDS011;2380;53.668;10.008;2022-08-25T11:36:57;29.63;;;12.70;;
4732;SDS011;2380;53.668;10.008;2022-08-25T11:42:42;11.47;;;5.30;;
4732;SDS011;2380;53.668;10.008;2022-08-25T11:45:21;8.80;;;4.23;;
4732;SDS011;2380;53.668;10.008;2022-08-25T11:48:07;8.10;;;4.70;;
4732;SDS011;2380;53.668;10.008;2022-08-25T11:50:57;19.53;;;11.37;;
4732;SDS011;2380;53.668;10.008;2022-08-25T11:53:33;30.67;;;17.57;;
4732;SDS011;2380;53.668;10.008;2022-08-25T11:56:08;9.37;;;4.97;;
4732;SDS011;2380;53.668;10.008;2022-08-25T11:58:40;12.47;;;5.93;;
4732;SDS011;2380;53.668;10.008;2022-08-25T12:04:12;9.77;;;4.90;;
4732;SDS011;2380;53.668;10.008;2022-08-25T12:12:57;8.03;;;4.97;;
4732;SDS011;2380;53.668;10.008;2022-08-25T12:15:32;8.40;;;4.03;;
4732;SDS011;2380;53.668;10.008;2022-08-25T12:18:07;9.03;;;4.33;;
4732;SDS011;2380;53.668;10.008;2022-08-25T12:23:38;9.27;;;4.57;;
4732;SDS011;2380;53.668;10.008;2022-08-25T12:26:15;12.40;;;4.40;;
4732;SDS011;2380;53.668;10.008;2022-08-25T12:28:51;7.90;;;4.07;;
4732;SDS011;2380;53.668;10.008;2022-08-25T12:31:41;8.50;;;4.43;;
4732;SDS011;2380;53.668;10.008;2022-08-25T12:34:34;7.77;;;3.93;;
4732;SDS011;2380;53.668;10.008;2022-08-25T12:37:11;10.70;;;4.20;;
4732;SDS011;2380;53.668;10.008;2022-08-25T12:39:43;6.87;;;4.00;;
4732;SDS011;2380;53.668;10.008;2022-08-25T12:42:22;13.33;;;4.03;;
4732;SDS011;2380;53.668;10.008;2022-08-25T12:47:57;7.20;;;3.77;;
4732;SDS011;2380;53.668;10.008;2022-08-25T12:51:00;7.77;;;3.63;;
4732;SDS011;2380;53.668;10.008;2022-08-25T12:53:33;7.63;;;4.17;;
4732;SDS011;2380;53.668;10.008;2022-08-25T12:56:05;8.60;;;4.47;;
4732;SDS011;2380;53.668;10.008;2022-08-25T12:58:46;5.13;;;3.60;;
4732;SDS011;2380;53.668;10.008;2022-08-25T13:01:30;7.83;;;4.03;;
4732;SDS011;2380;53.668;10.008;2022-08-25T13:04:17;8.93;;;3.70;;
4732;SDS011;2380;53.668;10.008;2022-08-25T13:07:09;6.67;;;3.70;;
4732;SDS011;2380;53.668;10.008;2022-08-25T13:12:39;8.77;;;3.77;;
4732;SDS011;2380;53.668;10.008;2022-08-25T13:15:31;5.33;;;3.10;;
4732;SDS011;2380;53.668;10.008;2022-08-25T13:21:02;6.47;;;3.50;;
4732;SDS011;2380;53.668;10.008;2022-08-25T13:23:33;8.63;;;3.80;;
4732;SDS011;2380;53.668;10.008;2022-08-25T13:26:05;8.20;;;3.53;;
4732;SDS011;2380;53.668;10.008;2022-08-25T13:28:36;6.97;;;3.10;;
4732;SDS011;2380;53.668;10.008;2022-08-25T13:31:13;11.20;;;6.60;;
4732;SDS011;2380;53.668;10.008;2022-08-25T13:33:51;21.47;;;10.97;;
4732;SDS011;2380;53.668;10.008;2022-08-25T13:36:22;13.03;;;5.40;;
4732;SDS011;2380;53.668;10.008;2022-08-25T13:39:11;17.33;;;7.27;;
4732;SDS011;2380;53.668;10.008;2022-08-25T13:41:51;9.67;;;4.47;;
4732;SDS011;2380;53.668;10.008;2022-08-25T13:44:22;8.97;;;4.87;;
4732;SDS011;2380;53.668;10.008;2022-08-25T13:47:07;6.60;;;4.17;;
4732;SDS011;2380;53.668;10.008;2022-08-25T13:49:40;6.57;;;3.20;;
4732;SDS011;2380;53.668;10.008;2022-08-25T13:52:14;10.83;;;5.20;;
4732;SDS011;2380;53.668;10.008;2022-08-25T13:54:56;9.00;;;5.00;;
4732;SDS011;2380;53.668;10.008;2022-08-25T13:57:30;11.73;;;5.57;;
4732;SDS011;2380;53.668;10.008;2022-08-25T14:00:03;9.37;;;5.93;;
4732;SDS011;2380;53.668;10.008;2022-08-25T14:02:41;14.27;;;9.23;;
4732;SDS011;2380;53.668;10.008;2022-08-25T14:05:15;9.37;;;4.33;;
4732;SDS011;2380;53.668;10.008;2022-08-25T14:08:02;19.70;;;10.10;;
4732;SDS011;2380;53.668;10.008;2022-08-25T14:10:51;7.77;;;3.50;;
4732;SDS011;2380;53.668;10.008;2022-08-25T14:13:31;6.27;;;3.23;;
4732;SDS011;2380;53.668;10.008;2022-08-25T14:16:11;10.30;;;4.07;;
4732;SDS011;2380;53.668;10.008;2022-08-25T14:18:48;20.23;;;12.13;;
4732;SDS011;2380;53.668;10.008;2022-08-25T14:21:22;8.33;;;4.30;;
4732;SDS011;2380;53.668;10.008;2022-08-25T14:23:54;13.57;;;6.17;;
4732;SDS011;2380;53.668;10.008;2022-08-25T14:26:25;6.10;;;3.67;;
4732;SDS011;2380;53.668;10.008;2022-08-25T14:28:55;6.87;;;3.83;;
4732;SDS011;2380;53.668;10.008;2022-08-25T14:31:26;7.87;;;4.50;;
4732;SDS011;2380;53.668;10.008;2022-08-25T14:34:00;8.30;;;5.00;;
4732;SDS011;2380;53.668;10.008;2022-08-25T14:36:32;10.33;;;4.87;;
4732;SDS011;2380;53.668;10.008;2022-08-25T14:39:04;7.67;;;4.37;;
4732;SDS011;2380;53.668;10.008;2022-08-25T14:41:35;10.03;;;6.33;;
4732;SDS011;2380;53.668;10.008;2022-08-25T14:44:07;17.10;;;9.87;;
4732;SDS011;2380;53.668;10.008;2022-08-25T14:46:39;15.20;;;8.60;;
4732;SDS011;2380;53.668;10.008;2022-08-25T14:49:15;11.90;;;6.67;;
4732;SDS011;2380;53.668;10.008;2022-08-25T14:51:50;14.13;;;8.10;;
4732;SDS011;2380;53.668;10.008;2022-08-25T14:54:21;9.90;;;6.13;;
4732;SDS011;2380;53.668;10.008;2022-08-25T14:56:53;7.83;;;4.60;;
4732;SDS011;2380;53.668;10.008;2022-08-25T14:59:23;12.70;;;7.40;;
4732;SDS011;2380;53.668;10.008;2022-08-25T15:01:54;28.43;;;19.53;;
4732;SDS011;2380;53.668;10.008;2022-08-25T15:04:26;8.90;;;5.40;;
4732;SDS011;2380;53.668;10.008;2022-08-25T15:06:57;11.73;;;6.40;;
4732;SDS011;2380;53.668;10.008;2022-08-25T15:09:49;32.20;;;21.67;;
4732;SDS011;2380;53.668;10.008;2022-08-25T15:12:15;8.30;;;5.50;;
4732;SDS011;2380;53.668;10.008;2022-08-25T15:15:07;8.43;;;4.40;;
4732;SDS011;2380;53.668;10.008;2022-08-25T15:17:38;8.60;;;5.50;;
4732;SDS011;2380;53.668;10.008;2022-08-25T15:20:12;7.90;;;5.00;;
4732;SDS011;2380;53.668;10.008;2022-08-25T15:22:42;8.33;;;6.00;;
4732;SDS011;2380;53.668;10.008;2022-08-25T15:25:13;7.93;;;4.20;;
4732;SDS011;2380;53.668;10.008;2022-08-25T15:27:43;9.50;;;5.70;;
4732;SDS011;2380;53.668;10.008;2022-08-25T15:30:13;20.30;;;13.57;;
4732;SDS011;2380;53.668;10.008;2022-08-25T15:32:43;13.30;;;9.10;;
4732;SDS011;2380;53.668;10.008;2022-08-25T15:35:16;23.40;;;13.90;;
4732;SDS011;2380;53.668;10.008;2022-08-25T15:37:53;13.50;;;5.97;;
4732;SDS011;2380;53.668;10.008;2022-08-25T15:40:22;8.93;;;5.00;;
4732;SDS011;2380;53.668;10.008;2022-08-25T15:42:52;59.23;;;41.27;;
4732;SDS011;2380;53.668;10.008;2022-08-25T15:45:24;18.23;;;6.50;;
4732;SDS011;2380;53.668;10.008;2022-08-25T15:47:53;6.30;;;4.13;;
4732;SDS011;2380;53.668;10.008;2022-08-25T15:50:25;40.13;;;27.97;;